createdAt,value
2022-08-27T00:01:27.721Z,9.27
2022-08-27T00:03:56.069Z,10.93
2022-08-27T00:06:25.751Z,9.40
2022-08-27T00:08:55.133Z,11.00
2022-08-27T00:11:25.364Z,9.50
2022-08-27T00:13:54.528Z,10.57
2022-08-27T00:16:22.467Z,10.53
2022-08-27T00:18:50.279Z,10.17
2022-08-27T00:21:18.790Z,11.03
2022-08-27T00:23:46.814Z,12.90
2022-08-27T00:26:15.831Z,10.60
2022-08-27T00:28:44.762Z,10.07
2022-08-27T00:31:14.143Z,10.33
2022-08-27T00:33:42.676Z,10.23
2022-08-27T00:36:11.401Z,9.43
2022-08-27T00:38:40.358Z,9.53
2022-08-27T00:41:10.113Z,11.03
2022-08-27T00:43:49.055Z,10.57
2022-08-27T00:46:23.950Z,9.80
2022-08-27T00:48:54.206Z,8.20
2022-08-27T00:51:22.916Z,10.77
2022-08-27T00:53:52.654Z,7.97
2022-08-27T00:56:23.626Z,9.20
2022-08-27T00:58:54.791Z,8.17
2022-08-27T01:01:26.009Z,8.90
2022-08-27T01:03:56.424Z,10.03
2022-08-27T01:06:26.898Z,9.13
2022-08-27T01:08:59.740Z,9.80
2022-08-27T01:11:27.521Z,9.30
2022-08-27T01:14:00.939Z,10.30
2022-08-27T01:16:36.407Z,8.60
2022-08-27T01:19:07.148Z,8.40
2022-08-27T01:21:42.507Z,7.90
2022-08-27T01:24:35.630Z,8.70
2022-08-27T01:27:05.669Z,8.60
2022-08-27T01:29:37.173Z,8.37
2022-08-27T01:32:10.686Z,8.27
2022-08-27T01:34:39.103Z,10.47
2022-08-27T01:37:07.401Z,8.00
2022-08-27T01:39:40.724Z,8.90
2022-08-27T01:42:11.421Z,8.73
2022-08-27T01:44:44.071Z,9.20
2022-08-27T01:47:12.221Z,10.60
2022-08-27T01:49:40.021Z,8.27
2022-08-27T01:52:07.848Z,9.53
2022-08-27T01:54:37.299Z,7.97
2022-08-27T01:57:05.970Z,10.20
2022-08-27T01:59:39.457Z,8.90
2022-08-27T02:02:09.146Z,9.20
2022-08-27T02:04:37.161Z,9.77
2022-08-27T02:07:05.913Z,9.40
2022-08-27T02:09:34.162Z,8.70
2022-08-27T02:12:03.930Z,9.70
2022-08-27T02:14:31.788Z,9.27
2022-08-27T02:16:59.731Z,8.87
2022-08-27T02:19:27.831Z,11.37
2022-08-27T02:22:00.094Z,9.27
2022-08-27T02:24:29.049Z,9.63
2022-08-27T02:26:58.582Z,10.97
2022-08-27T02:29:27.739Z,10.17
2022-08-27T02:31:55.520Z,10.90
2022-08-27T02:34:23.460Z,11.50
2022-08-27T02:36:53.797Z,10.73
2022-08-27T02:39:22.158Z,10.97
2022-08-27T02:41:50.213Z,13.80
2022-08-27T02:44:18.027Z,14.50
2022-08-27T02:46:47.460Z,12.03
2022-08-27T02:49:18.059Z,14.40
2022-08-27T02:51:45.876Z,14.23
2022-08-27T02:54:14.350Z,14.77
2022-08-27T02:56:42.128Z,13.63
2022-08-27T02:59:10.242Z,14.07
2022-08-27T03:01:38.054Z,12.77
2022-08-27T03:04:07.278Z,14.73
2022-08-27T03:06:35.053Z,14.10
2022-08-27T03:09:03.177Z,13.63
2022-08-27T03:11:31.897Z,15.40
2022-08-27T03:13:59.913Z,14.20
2022-08-27T03:16:27.926Z,14.60
2022-08-27T03:18:54.881Z,14.50
2022-08-27T03:21:25.693Z,15.60
2022-08-27T03:23:53.805Z,13.90
2022-08-27T03:26:22.380Z,13.17
2022-08-27T03:28:50.200Z,15.27
2022-08-27T03:31:26.887Z,13.57
2022-08-27T03:33:57.300Z,17.30
2022-08-27T03:36:27.729Z,15.43
2022-08-27T03:38:55.820Z,14.23
2022-08-27T03:41:24.224Z,14.40
2022-08-27T03:44:14.777Z,14.43
2022-08-27T03:46:50.040Z,13.03
2022-08-27T03:49:20.364Z,16.43
2022-08-27T03:51:50.877Z,15.03
2022-08-27T03:54:18.822Z,14.90
2022-08-27T03:56:46.926Z,16.23
2022-08-27T03:59:15.432Z,16.13
2022-08-27T04:01:43.360Z,13.70
2022-08-27T04:04:12.881Z,14.77
2022-08-27T04:06:40.871Z,15.70
2022-08-27T04:09:10.158Z,13.63
2022-08-27T04:11:38.406Z,12.87
2022-08-27T04:14:18.229Z,15.40
2022-08-27T04:16:55.806Z,15.80
2022-08-27T04:19:27.345Z,13.13
2022-08-27T04:21:59.394Z,15.07
2022-08-27T04:24:28.773Z,15.40
2022-08-27T04:26:56.573Z,13.03
2022-08-27T04:29:24.710Z,13.70
2022-08-27T04:31:52.515Z,15.10
2022-08-27T04:34:20.506Z,16.07
2022-08-27T04:36:48.607Z,14.03
2022-08-27T04:39:16.813Z,14.53
2022-08-27T04:41:45.909Z,14.63
2022-08-27T04:44:13.731Z,13.87
2022-08-27T04:46:43.090Z,14.70
2022-08-27T04:49:16.901Z,14.80
2022-08-27T04:51:44.794Z,16.27
2022-08-27T04:54:13.678Z,13.97
2022-08-27T04:56:41.794Z,18.10
2022-08-27T04:59:11.917Z,13.90
2022-08-27T05:01:41.463Z,13.37
2022-08-27T05:04:10.102Z,14.07
2022-08-27T05:06:37.952Z,18.07
2022-08-27T05:09:06.517Z,15.17
2022-08-27T05:11:35.272Z,14.30
2022-08-27T05:14:04.621Z,14.37
2022-08-27T05:16:36.298Z,14.07
2022-08-27T05:19:06.418Z,14.80
2022-08-27T05:21:38.044Z,14.90
2022-08-27T05:24:07.745Z,14.73
2022-08-27T05:26:37.131Z,15.53
2022-08-27T05:29:06.272Z,13.57
2022-08-27T05:31:35.871Z,15.60
2022-08-27T05:34:10.169Z,15.60
2022-08-27T05:36:47.746Z,13.63
2022-08-27T05:39:17.859Z,15.27
2022-08-27T05:41:45.619Z,14.57
2022-08-27T05:44:39.752Z,18.83
2022-08-27T05:47:03.978Z,16.80
2022-08-27T05:49:31.928Z,14.90
2022-08-27T05:51:59.964Z,16.47
2022-08-27T05:54:27.818Z,16.60
2022-08-27T05:56:55.565Z,15.70
2022-08-27T05:59:40.696Z,13.97
2022-08-27T06:02:11.174Z,13.80
2022-08-27T06:04:39.006Z,14.40
2022-08-27T06:07:09.221Z,17.20
2022-08-27T06:09:37.200Z,14.80
2022-08-27T06:12:06.149Z,14.77
2022-08-27T06:14:34.238Z,16.13
2022-08-27T06:17:02.570Z,16.07
2022-08-27T06:19:31.876Z,15.43
2022-08-27T06:22:09.880Z,15.50
2022-08-27T06:24:40.230Z,16.80
2022-08-27T06:27:09.797Z,17.47
2022-08-27T06:29:37.621Z,16.20
2022-08-27T06:32:06.084Z,16.73
2022-08-27T06:34:35.252Z,17.90
2022-08-27T06:37:03.431Z,18.10
2022-08-27T06:39:31.499Z,17.13
2022-08-27T06:42:00.279Z,17.90
2022-08-27T06:44:28.149Z,19.67
2022-08-27T06:46:56.641Z,18.20
2022-08-27T06:49:24.632Z,19.83
2022-08-27T06:51:53.953Z,18.27
2022-08-27T06:54:21.991Z,18.70
2022-08-27T06:56:50.163Z,17.10
2022-08-27T06:59:19.714Z,17.33
2022-08-27T07:01:51.078Z,18.73
2022-08-27T07:04:21.437Z,18.50
2022-08-27T07:06:50.137Z,24.23
2022-08-27T07:09:20.814Z,21.70
2022-08-27T07:11:48.734Z,19.63
2022-08-27T07:14:16.482Z,18.30
2022-08-27T07:16:45.344Z,21.50
2022-08-27T07:19:16.017Z,20.67
2022-08-27T07:21:44.893Z,21.83
2022-08-27T07:24:13.708Z,22.10
2022-08-27T07:26:44.560Z,21.73
2022-08-27T07:29:14.316Z,21.57
2022-08-27T07:31:42.692Z,22.27
2022-08-27T07:34:10.523Z,21.13
2022-08-27T07:36:38.879Z,20.87
2022-08-27T07:39:07.285Z,18.70
2022-08-27T07:41:57.615Z,23.57
2022-08-27T07:44:28.074Z,19.20
2022-08-27T07:46:59.272Z,19.20
2022-08-27T07:49:29.489Z,19.40
2022-08-27T07:51:57.346Z,21.03
2022-08-27T07:54:25.508Z,17.93
2022-08-27T07:56:55.299Z,18.80
2022-08-27T07:59:24.479Z,17.77
2022-08-27T08:01:54.743Z,19.53
2022-08-27T08:04:22.719Z,17.53
2022-08-27T08:06:51.091Z,23.57
2022-08-27T08:09:19.151Z,21.07
2022-08-27T08:11:47.019Z,18.40
2022-08-27T08:14:14.816Z,23.67
2022-08-27T08:16:43.084Z,21.43
2022-08-27T08:19:12.546Z,22.50
2022-08-27T08:21:40.521Z,18.83
2022-08-27T08:24:08.588Z,18.73
2022-08-27T08:26:36.831Z,20.47
2022-08-27T08:29:05.364Z,19.70
2022-08-27T08:31:33.343Z,20.53
2022-08-27T08:34:01.165Z,20.23
2022-08-27T08:36:30.321Z,19.47
2022-08-27T08:38:58.419Z,20.17
2022-08-27T08:41:41.032Z,18.47
2022-08-27T08:44:17.688Z,23.27
2022-08-27T08:46:54.145Z,20.07
2022-08-27T08:49:33.236Z,20.27
2022-08-27T08:52:17.013Z,17.40
2022-08-27T08:55:04.424Z,19.67
2022-08-27T08:57:37.550Z,15.77
2022-08-27T09:00:12.179Z,16.70
2022-08-27T09:02:40.292Z,19.50
2022-08-27T09:05:11.419Z,15.83
2022-08-27T09:07:48.610Z,15.93
2022-08-27T09:10:25.343Z,17.13
2022-08-27T09:12:57.084Z,15.60
2022-08-27T09:15:29.683Z,15.37
2022-08-27T09:18:06.593Z,16.77
2022-08-27T09:20:36.421Z,16.47
2022-08-27T09:23:12.360Z,18.20
2022-08-27T09:25:43.010Z,16.03
2022-08-27T09:28:28.292Z,15.33
2022-08-27T09:30:56.588Z,14.37
2022-08-27T09:33:24.400Z,15.77
2022-08-27T09:35:53.016Z,14.60
2022-08-27T09:38:28.383Z,17.35
2022-08-27T09:41:01.133Z,15.63
2022-08-27T09:43:31.902Z,15.50
2022-08-27T09:46:02.453Z,13.93
2022-08-27T09:48:32.366Z,14.02
2022-08-27T09:51:03.226Z,14.77
2022-08-27T09:53:38.403Z,17.15
2022-08-27T09:56:09.540Z,12.80
2022-08-27T09:58:51.524Z,13.70
2022-08-27T10:01:22.734Z,13.13
2022-08-27T10:04:05.835Z,15.90
2022-08-27T10:06:34.311Z,18.55
2022-08-27T10:09:10.245Z,14.50
2022-08-27T10:11:45.478Z,13.43
2022-08-27T10:14:16.992Z,14.15
2022-08-27T10:16:54.104Z,12.82
2022-08-27T10:19:43.521Z,15.55
2022-08-27T10:22:25.716Z,13.38
2022-08-27T10:25:08.976Z,13.77
2022-08-27T10:27:49.711Z,15.23
2022-08-27T10:30:21.381Z,13.90
2022-08-27T10:33:02.950Z,14.10
2022-08-27T10:35:36.859Z,14.00
2022-08-27T10:38:22.070Z,13.30
2022-08-27T10:40:57.185Z,11.82
2022-08-27T10:43:48.407Z,13.88
2022-08-27T10:46:37.778Z,14.35
2022-08-27T10:49:13.580Z,13.20
2022-08-27T10:51:55.962Z,13.80
2022-08-27T10:54:30.007Z,13.60
2022-08-27T10:57:28.659Z,17.37
2022-08-27T11:00:02.897Z,20.33
2022-08-27T11:02:37.200Z,24.33
2022-08-27T11:05:10.563Z,22.10
2022-08-27T11:07:41.974Z,20.47
2022-08-27T11:10:14.783Z,18.73
2022-08-27T11:12:48.885Z,20.57
2022-08-27T11:15:21.072Z,19.80
2022-08-27T11:17:55.709Z,21.20
2022-08-27T11:23:55.158Z,22.07
2022-08-27T11:26:22.966Z,17.63
2022-08-27T11:28:55.913Z,18.20
2022-08-27T11:31:30.419Z,18.43
2022-08-27T11:34:05.647Z,17.97
2022-08-27T11:37:03.682Z,16.80
2022-08-27T11:39:44.632Z,17.20
2022-08-27T11:42:20.087Z,18.43
2022-08-27T11:44:54.266Z,18.10
2022-08-27T11:47:25.285Z,17.60
2022-08-27T11:49:56.186Z,18.00
2022-08-27T11:52:27.013Z,17.50
2022-08-27T11:55:09.944Z,20.17
2022-08-27T11:57:38.539Z,24.63
2022-08-27T12:00:19.276Z,22.30
2022-08-27T12:02:58.938Z,21.97
2022-08-27T12:05:37.027Z,19.57
2022-08-27T12:08:16.595Z,16.50
2022-08-27T12:11:04.523Z,14.00
2022-08-27T12:13:39.382Z,8.70
2022-08-27T12:16:21.372Z,11.10
2022-08-27T12:19:04.937Z,8.47
2022-08-27T12:21:46.131Z,8.03
2022-08-27T12:24:24.516Z,8.17
2022-08-27T12:26:57.277Z,9.00
2022-08-27T12:29:31.165Z,7.93
2022-08-27T12:32:18.303Z,9.13
2022-08-27T12:34:56.535Z,7.77
2022-08-27T12:37:30.847Z,7.27
2022-08-27T12:40:03.134Z,8.20
2022-08-27T12:42:30.986Z,7.00
2022-08-27T12:44:59.977Z,6.40
2022-08-27T12:47:31.223Z,7.13
2022-08-27T12:50:02.111Z,7.30
2022-08-27T12:52:58.679Z,7.13
2022-08-27T12:55:39.861Z,8.03
2022-08-27T12:58:15.842Z,6.23
2022-08-27T13:01:22.247Z,6.83
2022-08-27T13:03:54.126Z,8.13
2022-08-27T13:06:27.281Z,7.47
2022-08-27T13:08:56.851Z,7.97
2022-08-27T13:11:28.072Z,7.37
2022-08-27T13:14:08.384Z,9.23
2022-08-27T13:16:39.667Z,9.07
2022-08-27T13:19:18.338Z,10.70
2022-08-27T13:21:49.982Z,10.77
2022-08-27T13:24:22.485Z,10.87
2022-08-27T13:26:54.693Z,10.27
2022-08-27T13:29:22.699Z,11.83
2022-08-27T13:31:51.378Z,10.77
2022-08-27T13:34:23.511Z,10.57
2022-08-27T13:36:57.492Z,11.53
2022-08-27T13:39:26.587Z,12.17
2022-08-27T13:41:55.491Z,11.90
2022-08-27T13:44:26.667Z,10.97
2022-08-27T13:47:00.701Z,11.60
2022-08-27T13:49:32.323Z,11.90
2022-08-27T13:52:03.462Z,12.37
2022-08-27T13:54:33.354Z,13.63
2022-08-27T13:57:08.426Z,11.47
2022-08-27T13:59:43.315Z,12.00
2022-08-27T14:02:23.526Z,11.37
2022-08-27T14:05:07.059Z,13.70
2022-08-27T14:07:37.894Z,14.43
2022-08-27T14:10:08.714Z,11.53
2022-08-27T14:12:41.079Z,12.27
2022-08-27T14:15:22.669Z,14.47
2022-08-27T14:17:51.323Z,13.93
2022-08-27T14:20:21.497Z,12.13
2022-08-27T14:22:50.397Z,11.70
2022-08-27T14:25:19.141Z,13.83
2022-08-27T14:27:54.166Z,12.63
2022-08-27T14:30:25.264Z,12.77
2022-08-27T14:32:59.402Z,13.97
2022-08-27T14:35:32.947Z,14.23
2022-08-27T14:38:02.439Z,13.00
2022-08-27T14:40:31.482Z,12.57
2022-08-27T14:43:00.979Z,12.87
2022-08-27T14:45:28.850Z,13.83
2022-08-27T14:47:59.013Z,14.43
2022-08-27T14:50:31.797Z,15.23
2022-08-27T14:52:59.635Z,11.87
2022-08-27T14:55:27.651Z,14.13
2022-08-27T14:57:55.441Z,15.77
2022-08-27T15:00:23.224Z,14.87
2022-08-27T15:02:51.355Z,14.43
2022-08-27T15:05:22.506Z,13.80
2022-08-27T15:07:57.313Z,13.73
2022-08-27T15:10:26.197Z,15.23
2022-08-27T15:12:54.680Z,13.97
2022-08-27T15:15:22.685Z,13.87
2022-08-27T15:17:50.612Z,13.07
2022-08-27T15:20:20.289Z,11.40
2022-08-27T15:22:51.228Z,11.20
2022-08-27T15:25:21.307Z,12.30
2022-08-27T15:27:49.338Z,13.33
2022-08-27T15:30:19.045Z,13.63
2022-08-27T15:32:49.022Z,14.17
2022-08-27T15:35:19.055Z,12.57
2022-08-27T15:37:47.150Z,12.00
2022-08-27T15:40:17.031Z,13.77
2022-08-27T15:42:47.075Z,12.50
2022-08-27T15:45:15.918Z,13.87
2022-08-27T15:47:43.766Z,12.27
2022-08-27T15:50:12.133Z,11.57
2022-08-27T15:52:41.512Z,12.43
2022-08-27T15:55:15.706Z,14.63
2022-08-27T15:57:43.500Z,11.80
2022-08-27T16:00:14.024Z,13.27
2022-08-27T16:02:42.507Z,13.33
2022-08-27T16:05:12.062Z,14.97
2022-08-27T16:07:39.862Z,16.47
2022-08-27T16:10:09.331Z,17.10
2022-08-27T16:12:37.632Z,16.93
2022-08-27T16:15:06.683Z,17.53
2022-08-27T16:17:36.449Z,20.80
2022-08-27T16:20:06.079Z,18.60
2022-08-27T16:22:34.950Z,17.03
2022-08-27T16:25:03.390Z,19.73
2022-08-27T16:27:31.166Z,20.30
2022-08-27T16:29:58.961Z,21.83
2022-08-27T16:32:28.796Z,21.13
2022-08-27T16:34:58.303Z,20.83
2022-08-27T16:37:26.145Z,20.60
2022-08-27T16:39:54.250Z,21.73
2022-08-27T16:42:22.418Z,20.90
2022-08-27T16:44:50.861Z,23.43
2022-08-27T16:47:18.769Z,23.07
2022-08-27T16:50:04.097Z,22.13
2022-08-27T16:52:33.661Z,20.77
2022-08-27T16:55:01.573Z,21.50
2022-08-27T16:57:29.343Z,20.13
2022-08-27T16:59:57.168Z,20.43
2022-08-27T17:02:30.568Z,20.90
2022-08-27T17:05:07.246Z,22.13
2022-08-27T17:07:49.338Z,18.50
2022-08-27T17:10:18.347Z,22.63
2022-08-27T17:12:47.798Z,19.07
2022-08-27T17:15:16.913Z,21.40
2022-08-27T17:17:45.503Z,21.83
2022-08-27T17:20:14.950Z,22.47
2022-08-27T17:22:43.313Z,19.70
2022-08-27T17:25:12.630Z,22.43
2022-08-27T17:27:40.459Z,21.10
2022-08-27T17:30:10.195Z,19.53
2022-08-27T17:32:40.702Z,20.43
2022-08-27T17:35:10.851Z,20.07
2022-08-27T17:37:39.201Z,19.70
2022-08-27T17:40:09.909Z,17.87
2022-08-27T17:42:39.446Z,18.13
2022-08-27T17:45:08.279Z,16.90
2022-08-27T17:47:36.246Z,19.77
2022-08-27T17:50:04.295Z,19.47
2022-08-27T17:52:34.314Z,19.77
2022-08-27T17:55:02.167Z,20.70
2022-08-27T17:57:40.558Z,20.63
2022-08-27T18:00:13.180Z,18.63
2022-08-27T18:02:44.288Z,20.23
2022-08-27T18:05:13.758Z,19.13
2022-08-27T18:07:42.431Z,20.67
2022-08-27T18:10:11.162Z,20.37
2022-08-27T18:12:40.208Z,17.63
2022-08-27T18:15:15.006Z,21.63
2022-08-27T18:17:43.384Z,22.27
2022-08-27T18:20:13.811Z,21.93
2022-08-27T18:22:48.347Z,22.37
2022-08-27T18:25:18.543Z,22.30
2022-08-27T18:27:49.103Z,20.60
2022-08-27T18:30:19.130Z,21.53
2022-08-27T18:32:47.287Z,22.73
2022-08-27T18:35:18.714Z,22.70
2022-08-27T18:37:46.808Z,19.60
2022-08-27T18:40:16.439Z,21.97
2022-08-27T18:42:44.886Z,21.97
2022-08-27T18:45:15.880Z,24.50
2022-08-27T18:47:45.561Z,21.43
2022-08-27T18:50:17.492Z,21.50
2022-08-27T18:52:46.394Z,24.17
2022-08-27T18:55:16.399Z,22.93
2022-08-27T18:57:44.209Z,20.10
2022-08-27T19:00:14.800Z,22.67
2022-08-27T19:02:47.834Z,21.67
2022-08-27T19:05:23.817Z,22.77
2022-08-27T19:07:51.607Z,21.50
2022-08-27T19:10:19.704Z,20.53
2022-08-27T19:12:47.831Z,20.43
2022-08-27T19:15:15.727Z,20.53
2022-08-27T19:17:47.991Z,22.53
2022-08-27T19:20:17.405Z,19.07
2022-08-27T19:22:45.398Z,19.97
2022-08-27T19:25:13.739Z,22.43
2022-08-27T19:27:41.969Z,19.77
2022-08-27T19:30:11.006Z,21.23
2022-08-27T19:32:38.834Z,20.70
2022-08-27T19:35:09.138Z,21.80
2022-08-27T19:37:42.579Z,20.00
2022-08-27T19:40:12.461Z,21.07
2022-08-27T19:42:42.072Z,21.83
2022-08-27T19:45:10.629Z,24.43
2022-08-27T19:47:39.023Z,19.33
2022-08-27T19:50:09.049Z,21.93
2022-08-27T19:52:36.931Z,23.37
2022-08-27T19:55:17.584Z,20.73
2022-08-27T19:57:46.099Z,22.03
2022-08-27T20:00:16.129Z,20.53
2022-08-27T20:02:43.926Z,23.10
2022-08-27T20:05:20.367Z,23.10
2022-08-27T20:07:49.220Z,23.37
2022-08-27T20:10:17.521Z,21.87
2022-08-27T20:12:46.133Z,21.20
2022-08-27T20:15:14.638Z,23.13
2022-08-27T20:17:44.007Z,22.37
2022-08-27T20:20:15.190Z,21.33
2022-08-27T20:22:44.120Z,21.50
2022-08-27T20:25:13.218Z,20.40
2022-08-27T20:27:41.710Z,20.00
2022-08-27T20:30:14.453Z,22.03
2022-08-27T20:32:42.509Z,20.33
2022-08-27T20:35:12.097Z,20.83
2022-08-27T20:37:42.454Z,21.63
2022-08-27T20:40:13.917Z,21.77
2022-08-27T20:42:41.880Z,20.83
2022-08-27T20:45:12.431Z,22.07
2022-08-27T20:47:40.983Z,20.93
2022-08-27T20:50:11.816Z,19.97
2022-08-27T20:52:42.089Z,21.63
2022-08-27T20:55:12.044Z,23.37
2022-08-27T20:58:11.639Z,19.67
2022-08-27T21:00:41.549Z,21.77
2022-08-27T21:03:09.827Z,22.90
2022-08-27T21:05:38.945Z,23.10
2022-08-27T21:08:08.575Z,22.43
2022-08-27T21:10:36.642Z,21.83
2022-08-27T21:13:06.687Z,23.43
2022-08-27T21:15:36.880Z,20.23
2022-08-27T21:18:05.028Z,20.10
2022-08-27T21:20:33.110Z,22.37
2022-08-27T21:23:01.683Z,22.07
2022-08-27T21:25:31.376Z,22.90
2022-08-27T21:28:00.321Z,22.60
2022-08-27T21:30:28.468Z,25.50
2022-08-27T21:32:56.999Z,23.50
2022-08-27T21:35:26.680Z,21.80
2022-08-27T21:37:55.684Z,23.27
2022-08-27T21:40:25.095Z,25.40
2022-08-27T21:42:54.783Z,23.33
2022-08-27T21:45:23.035Z,22.30
2022-08-27T21:47:51.756Z,24.47
2022-08-27T21:50:20.241Z,24.47
2022-08-27T21:52:48.307Z,23.13
2022-08-27T21:55:16.610Z,24.60
2022-08-27T21:57:44.392Z,19.23
2022-08-27T22:00:36.711Z,18.83
2022-08-27T22:03:04.808Z,18.23
2022-08-27T22:05:40.151Z,21.77
2022-08-27T22:08:09.200Z,18.33
2022-08-27T22:10:37.464Z,18.50
2022-08-27T22:13:05.618Z,22.47
2022-08-27T22:15:35.345Z,21.10
2022-08-27T22:18:03.309Z,19.17
2022-08-27T22:20:31.261Z,21.33
2022-08-27T22:22:59.103Z,21.20
2022-08-27T22:25:27.983Z,22.10
2022-08-27T22:27:56.278Z,22.97
2022-08-27T22:30:24.509Z,23.17
2022-08-27T22:32:54.259Z,25.57
2022-08-27T22:35:22.815Z,23.23
2022-08-27T22:37:51.721Z,23.60
2022-08-27T22:40:22.245Z,22.63
2022-08-27T22:42:50.638Z,23.10
2022-08-27T22:45:19.945Z,25.47
2022-08-27T22:47:48.210Z,25.83
2022-08-27T22:50:17.962Z,24.00
2022-08-27T22:52:48.532Z,26.53
2022-08-27T22:55:19.318Z,22.43
2022-08-27T22:57:47.662Z,25.90
2022-08-27T23:00:19.813Z,23.83
2022-08-27T23:02:47.757Z,21.07
2022-08-27T23:05:17.981Z,21.70
2022-08-27T23:07:46.411Z,22.27
2022-08-27T23:10:21.814Z,21.23
2022-08-27T23:12:50.160Z,23.13
2022-08-27T23:15:19.523Z,24.27
2022-08-27T23:17:47.322Z,21.53
2022-08-27T23:20:15.414Z,24.60
2022-08-27T23:22:45.449Z,22.63
2022-08-27T23:25:31.295Z,24.03
2022-08-27T23:27:59.912Z,27.40
2022-08-27T23:30:28.869Z,26.83
2022-08-27T23:32:57.641Z,26.33
2022-08-27T23:35:27.402Z,23.80
2022-08-27T23:37:57.439Z,30.03
2022-08-27T23:40:25.900Z,23.93
2022-08-27T23:42:54.803Z,25.00
2022-08-27T23:45:24.730Z,23.00
2022-08-27T23:47:53.017Z,27.17
2022-08-27T23:50:21.850Z,22.57
2022-08-27T23:52:58.378Z,22.47
2022-08-27T23:55:26.307Z,22.87
2022-08-27T23:57:57.460Z,19.23
